Aérodrome :
LOGIN :

S'inscrire | Disclaimer

   EN    FR    IT 

 










Légende :    VFR   VFR Marginal   IFR   IFR Intensif   IFR Très Intensif
Visi : 
Plafond : 
>= 8 km
>= 3000ft
5 à 8 km
1000 à 3000 ft
1500m à 5 km
500 à 1000 ft
800 à 1500m
200 à 500 ft
< 800m
< 200 ft
Symboles :   Orages  Brouillard  Fortes neiges  Fortes précipitations  Vent > 20 kt
SIGMETs :   Divers  Orages  Givrage  Turbulence  Onde Orograph.  Cendres Volcan.







- Altitude de l'aérodrome : 218 ft
- Code IATA : LBG
- Voir les cartes d'approche


LFPB - Paris / Le Bourget

DERNIER METAR :
  • 150130Z AUTO 11005KT 9999 OVC031 M00/M06 Q1024 NOSIG

METARs EXPIRÉS :
  • 150100Z AUTO 08004KT 9999 OVC031 M00/M06 Q1024 NOSIG
  • 150030Z AUTO 08003KT 9999 OVC031 00/M06 Q1024 NOSIG
  • 150000Z AUTO VRB03KT 9999 OVC030 00/M06 Q1024 NOSIG
  • 142330Z AUTO 11005KT 9999 OVC029 00/M06 Q1024 NOSIG
  • 142300Z AUTO 13006KT 090V160 9999 OVC030 00/M06 Q1024 NOSIG

TAF TAF LFPB
Valide du 15 à 00h jusqu'au 16 à 00h UTC


142300Z 1500/1524 12005KT 9999 BKN030 TX04/1523Z TNM03/1504Z
PROB30
TEMPO 1512/1514 -SN
PROB30
TEMPO 1512/1517 -FZRA
BECMG 1516/1518 -RA BKN006
TEMPO 1520/1521 16015G25KT
PROB40
TEMPO 1518/1524 3000 RA BKN003
ATIS : +33 1 48 62 43 92
Pas de NOTAMs connus pour ce terrain.



MET'MAP, la Météo Aéronautique d'un coup d'oeil ! - Copyright ORBIFLY Décembre 2007 - Disclaimer

ORBIFLY MET'MAP TEAM :

Programmation & Développement : Alexandra Zaïnal
Conception & Développement : Baudouin d'Aumeries
Co-Programmation & Développement : Marc-Olivier Méhu
Soutien technique & logistique : Manuel Goepfert

Contact : metmap@orbifly.com




SOURCES & CREDITS :

   NOAA